QAK4848 MMAA-MMSD
Flight info
| Callsign | QAK4848 |
|---|---|
| Flight time | 2h 1m |
| Altitude | 40000 |
| Route | NICOS J1 ZIH UJ9 PVR UT73 TENAY TENAY1A |
| Aircraft | CL60/M-SBDE1E2E3FGHIJ1J4J5J7M3RWXYZ/LB1V1D1 |
Departure
| Time | 2026-04-24 20:06 |
|---|---|
| Airport | General Juan N. Álvarez International Airport (MMAA) |
Arrival
| Time | 2026-04-24 22:08 |
|---|---|
| Airport | Los Cabos International Airport (MMSD) |
| Time | Latitude | Longitude | Altitude | Speed | Heading |
|---|---|---|---|---|---|
| 2026-04-24 19:55 | 16.76122 | -99.74960 | 27 ft | 0 kts | 249° |
| 2026-04-24 20:02 | 16.76121 | -99.74960 | 27 ft | 0 kts | 249° |
| 2026-04-24 20:02 | 16.76117 | -99.74972 | 27 ft | 4 kts | 248° |
| 2026-04-24 20:02 | 16.76106 | -99.74982 | 27 ft | 4 kts | 185° |
| 2026-04-24 20:03 | 16.76079 | -99.74995 | 27 ft | 8 kts | 246° |
| 2026-04-24 20:03 | 16.76069 | -99.75017 | 27 ft | 8 kts | 245° |
| 2026-04-24 20:03 | 16.76046 | -99.75033 | 26 ft | 10 kts | 153° |
| 2026-04-24 20:04 | 16.76032 | -99.74998 | 27 ft | 11 kts | 92° |
| 2026-04-24 20:04 | 16.76033 | -99.74971 | 26 ft | 13 kts | 83° |
| 2026-04-24 20:04 | 16.76029 | -99.74905 | 27 ft | 2 kts | 97° |
| 2026-04-24 20:05 | 16.76026 | -99.74882 | 26 ft | 6 kts | 97° |
| 2026-04-24 20:05 | 16.75999 | -99.74819 | 26 ft | 11 kts | 149° |
| 2026-04-24 20:05 | 16.75926 | -99.74847 | 26 ft | 15 kts | 251° |
| 2026-04-24 20:05 | 16.75849 | -99.75040 | 26 ft | 58 kts | 246° |
| 2026-04-24 20:06 | 16.75575 | -99.75710 | 26 ft | 135 kts | 246° |
| 2026-04-24 20:06 | 16.75132 | -99.76695 | 383 ft | 164 kts | 242° |
| 2026-04-24 20:06 | 16.74637 | -99.77943 | 963 ft | 190 kts | 255° |
| 2026-04-24 20:06 | 16.74439 | -99.79301 | 1863 ft | 197 kts | 265° |
| 2026-04-24 20:07 | 16.74420 | -99.80249 | 2469 ft | 200 kts | 273° |
| 2026-04-24 20:07 | 16.74711 | -99.82251 | 3365 ft | 216 kts | 285° |
| 2026-04-24 20:07 | 16.75160 | -99.83767 | 3985 ft | 215 kts | 290° |
| 2026-04-24 20:07 | 16.75725 | -99.85280 | 4213 ft | 219 kts | 292° |
| 2026-04-24 20:08 | 16.76234 | -99.86787 | 4184 ft | 220 kts | 284° |
| 2026-04-24 20:08 | 16.76736 | -99.88287 | 4010 ft | 216 kts | 301° |
| 2026-04-24 20:08 | 16.77573 | -99.89618 | 3893 ft | 217 kts | 306° |
| 2026-04-24 20:08 | 16.78520 | -99.90955 | 4559 ft | 239 kts | 307° |
| 2026-04-24 20:09 | 16.79473 | -99.92295 | 6069 ft | 228 kts | 308° |
| 2026-04-24 20:09 | 16.80388 | -99.93582 | 7282 ft | 228 kts | 308° |
| 2026-04-24 20:09 | 16.81330 | -99.94906 | 8366 ft | 233 kts | 308° |
| 2026-04-24 20:09 | 16.82347 | -99.96330 | 9031 ft | 260 kts | 307° |
| 2026-04-24 20:10 | 16.83536 | -99.97995 | 9661 ft | 287 kts | 308° |
| 2026-04-24 20:10 | 16.84773 | -99.99728 | 10676 ft | 297 kts | 307° |
| 2026-04-24 20:10 | 16.86030 | -100.01491 | 11779 ft | 301 kts | 307° |
| 2026-04-24 20:10 | 16.87314 | -100.03294 | 12869 ft | 306 kts | 307° |
| 2026-04-24 20:11 | 16.88611 | -100.05118 | 13891 ft | 311 kts | 307° |
| 2026-04-24 20:11 | 16.89917 | -100.06956 | 14855 ft | 316 kts | 308° |
| 2026-04-24 20:11 | 16.91245 | -100.08826 | 15775 ft | 321 kts | 308° |
| 2026-04-24 20:11 | 16.92615 | -100.10756 | 16660 ft | 327 kts | 308° |
| 2026-04-24 20:12 | 16.94014 | -100.12726 | 17510 ft | 333 kts | 308° |
| 2026-04-24 20:12 | 16.95388 | -100.14661 | 18380 ft | 336 kts | 308° |
| 2026-04-24 20:12 | 16.96786 | -100.16631 | 19288 ft | 338 kts | 308° |
| 2026-04-24 20:12 | 16.98174 | -100.18588 | 20130 ft | 341 kts | 308° |
| 2026-04-24 20:13 | 16.99594 | -100.20591 | 20945 ft | 344 kts | 308° |
| 2026-04-24 20:13 | 17.01014 | -100.22593 | 21736 ft | 347 kts | 308° |
| 2026-04-24 20:13 | 17.02467 | -100.24643 | 22521 ft | 350 kts | 308° |
| 2026-04-24 20:13 | 17.03910 | -100.26678 | 23250 ft | 354 kts | 308° |
| 2026-04-24 20:14 | 17.05335 | -100.28767 | 23965 ft | 359 kts | 302° |
| 2026-04-24 20:14 | 17.06488 | -100.31115 | 24645 ft | 365 kts | 297° |
| 2026-04-24 20:14 | 17.07600 | -100.33535 | 25325 ft | 369 kts | 297° |
| 2026-04-24 20:14 | 17.08712 | -100.35941 | 25987 ft | 373 kts | 297° |
| 2026-04-24 20:15 | 17.09849 | -100.38399 | 26634 ft | 377 kts | 297° |
| 2026-04-24 20:15 | 17.10995 | -100.40874 | 27260 ft | 381 kts | 296° |
| 2026-04-24 20:15 | 17.12151 | -100.43368 | 27858 ft | 384 kts | 296° |
| 2026-04-24 20:15 | 17.13322 | -100.45895 | 28505 ft | 386 kts | 296° |
| 2026-04-24 20:16 | 17.14485 | -100.48404 | 29083 ft | 390 kts | 296° |
| 2026-04-24 20:16 | 17.15677 | -100.50974 | 29625 ft | 393 kts | 296° |
| 2026-04-24 20:16 | 17.16863 | -100.53530 | 30138 ft | 396 kts | 295° |
| 2026-04-24 20:16 | 17.18075 | -100.56142 | 30680 ft | 398 kts | 295° |
| 2026-04-24 20:17 | 17.19277 | -100.58734 | 31189 ft | 400 kts | 295° |
| 2026-04-24 20:17 | 17.21719 | -100.64001 | 32056 ft | 407 kts | 295° |
| 2026-04-24 20:17 | 17.22968 | -100.66695 | 32481 ft | 410 kts | 294° |
| 2026-04-24 20:18 | 17.23785 | -100.68456 | 32770 ft | 411 kts | 294° |
| 2026-04-24 20:18 | 17.24488 | -100.69972 | 32997 ft | 412 kts | 294° |
| 2026-04-24 20:19 | 17.25062 | -100.71211 | 33203 ft | 413 kts | 294° |
| 2026-04-24 20:20 | 17.25570 | -100.72307 | 33381 ft | 414 kts | 294° |
| 2026-04-24 20:20 | 17.25755 | -100.72706 | 33449 ft | 414 kts | 294° |
| 2026-04-24 20:20 | 17.27156 | -100.75727 | 33985 ft | 415 kts | 294° |
| 2026-04-24 20:21 | 17.28418 | -100.78453 | 34432 ft | 416 kts | 294° |
| 2026-04-24 20:21 | 17.29673 | -100.81163 | 34826 ft | 416 kts | 294° |
| 2026-04-24 20:21 | 17.30459 | -100.82861 | 35053 ft | 418 kts | 294° |
| 2026-04-24 20:21 | 17.30997 | -100.84023 | 35196 ft | 419 kts | 295° |
| 2026-04-24 20:22 | 17.32257 | -100.86745 | 35528 ft | 420 kts | 295° |
| 2026-04-24 20:22 | 17.33027 | -100.88410 | 35741 ft | 421 kts | 295° |
| 2026-04-24 20:22 | 17.33807 | -100.90096 | 35904 ft | 423 kts | 295° |
| 2026-04-24 20:23 | 17.36414 | -100.95735 | 36312 ft | 430 kts | 295° |
| 2026-04-24 20:23 | 17.37703 | -100.98525 | 36719 ft | 428 kts | 295° |
| 2026-04-24 20:23 | 17.38987 | -101.01305 | 37065 ft | 427 kts | 295° |
| 2026-04-24 20:24 | 17.39853 | -101.03181 | 37300 ft | 427 kts | 295° |
| 2026-04-24 20:24 | 17.41571 | -101.06903 | 37673 ft | 427 kts | 295° |
| 2026-04-24 20:24 | 17.42866 | -101.09709 | 37950 ft | 426 kts | 295° |
| 2026-04-24 20:24 | 17.44141 | -101.12475 | 38318 ft | 424 kts | 295° |
| 2026-04-24 20:25 | 17.45422 | -101.15254 | 38657 ft | 421 kts | 295° |
| 2026-04-24 20:25 | 17.46680 | -101.17985 | 38976 ft | 419 kts | 295° |
| 2026-04-24 20:25 | 17.47955 | -101.20754 | 39180 ft | 420 kts | 295° |
| 2026-04-24 20:25 | 17.49213 | -101.23488 | 39399 ft | 420 kts | 295° |
| 2026-04-24 20:26 | 17.50488 | -101.26257 | 39614 ft | 420 kts | 295° |
| 2026-04-24 20:26 | 17.51744 | -101.28989 | 39769 ft | 421 kts | 295° |
| 2026-04-24 20:26 | 17.53020 | -101.31765 | 39906 ft | 421 kts | 295° |
| 2026-04-24 20:26 | 17.54284 | -101.34515 | 39886 ft | 420 kts | 295° |
| 2026-04-24 20:27 | 17.56788 | -101.39970 | 39898 ft | 413 kts | 295° |
| 2026-04-24 20:27 | 17.59281 | -101.45395 | 39897 ft | 410 kts | 296° |
| 2026-04-24 20:28 | 17.62456 | -101.50332 | 39891 ft | 410 kts | 309° |
| 2026-04-24 20:28 | 17.66146 | -101.54892 | 39892 ft | 410 kts | 309° |
| 2026-04-24 20:29 | 17.69818 | -101.59440 | 39887 ft | 410 kts | 308° |
| 2026-04-24 20:29 | 17.73529 | -101.64040 | 39882 ft | 409 kts | 308° |
| 2026-04-24 20:30 | 17.77201 | -101.68594 | 39881 ft | 409 kts | 308° |
| 2026-04-24 20:30 | 17.80887 | -101.73170 | 39878 ft | 408 kts | 308° |
| 2026-04-24 20:31 | 17.84590 | -101.77769 | 39874 ft | 409 kts | 308° |
| 2026-04-24 20:31 | 17.88266 | -101.82340 | 39877 ft | 408 kts | 308° |
| 2026-04-24 20:32 | 17.91951 | -101.86923 | 39867 ft | 405 kts | 308° |
| 2026-04-24 20:32 | 17.95570 | -101.91426 | 39856 ft | 402 kts | 308° |
| 2026-04-24 20:33 | 17.99183 | -101.95924 | 39849 ft | 401 kts | 308° |
| 2026-04-24 20:33 | 18.02779 | -102.00404 | 39861 ft | 402 kts | 308° |
| 2026-04-24 20:34 | 18.06411 | -102.04932 | 39861 ft | 402 kts | 308° |
| 2026-04-24 20:34 | 18.10002 | -102.09412 | 39877 ft | 401 kts | 308° |
| 2026-04-24 20:35 | 18.13622 | -102.13932 | 39900 ft | 400 kts | 308° |
| 2026-04-24 20:35 | 18.17211 | -102.18417 | 39930 ft | 401 kts | 308° |
| 2026-04-24 20:36 | 18.20803 | -102.22910 | 39946 ft | 402 kts | 308° |
| 2026-04-24 20:36 | 18.24383 | -102.27392 | 39964 ft | 402 kts | 308° |
| 2026-04-24 20:37 | 18.27979 | -102.31895 | 39968 ft | 402 kts | 308° |
| 2026-04-24 20:37 | 18.31580 | -102.36409 | 39983 ft | 402 kts | 308° |
| 2026-04-24 20:38 | 18.35175 | -102.40918 | 39994 ft | 402 kts | 308° |
| 2026-04-24 20:38 | 18.38764 | -102.45422 | 40021 ft | 402 kts | 308° |
| 2026-04-24 20:39 | 18.42355 | -102.49934 | 40053 ft | 402 kts | 308° |
| 2026-04-24 20:39 | 18.45955 | -102.54459 | 40072 ft | 402 kts | 308° |
| 2026-04-24 20:40 | 18.49534 | -102.58960 | 40086 ft | 402 kts | 308° |
| 2026-04-24 20:40 | 18.53136 | -102.63495 | 40076 ft | 402 kts | 308° |
| 2026-04-24 20:41 | 18.56733 | -102.68026 | 40054 ft | 402 kts | 307° |
| 2026-04-24 20:41 | 18.60386 | -102.72629 | 40039 ft | 401 kts | 307° |
| 2026-04-24 20:42 | 18.64022 | -102.77216 | 40036 ft | 401 kts | 307° |
| 2026-04-24 20:42 | 18.67630 | -102.81771 | 40066 ft | 401 kts | 307° |
| 2026-04-24 20:43 | 18.71209 | -102.86294 | 40081 ft | 402 kts | 307° |
| 2026-04-24 20:43 | 18.74787 | -102.90816 | 40098 ft | 401 kts | 307° |
| 2026-04-24 20:44 | 18.78388 | -102.95373 | 40111 ft | 401 kts | 307° |
| 2026-04-24 20:44 | 18.81997 | -102.99942 | 40112 ft | 400 kts | 307° |
| 2026-04-24 20:45 | 18.85618 | -103.04530 | 40094 ft | 400 kts | 307° |
| 2026-04-24 20:45 | 18.89253 | -103.09139 | 40051 ft | 401 kts | 307° |
| 2026-04-24 20:46 | 18.92891 | -103.13757 | 40039 ft | 401 kts | 307° |
| 2026-04-24 20:46 | 18.96493 | -103.18330 | 40010 ft | 400 kts | 307° |
| 2026-04-24 20:47 | 19.00077 | -103.22886 | 39994 ft | 400 kts | 307° |
| 2026-04-24 20:47 | 19.03661 | -103.27444 | 39995 ft | 400 kts | 307° |
| 2026-04-24 20:48 | 19.07297 | -103.32072 | 40008 ft | 400 kts | 307° |
| 2026-04-24 20:48 | 19.10907 | -103.36670 | 39996 ft | 400 kts | 307° |
| 2026-04-24 20:49 | 19.14500 | -103.41251 | 39991 ft | 401 kts | 307° |
| 2026-04-24 20:49 | 19.18093 | -103.45834 | 39974 ft | 401 kts | 307° |
| 2026-04-24 20:50 | 19.21650 | -103.50376 | 39946 ft | 401 kts | 307° |
| 2026-04-24 20:50 | 19.25248 | -103.54974 | 39948 ft | 400 kts | 307° |
| 2026-04-24 20:51 | 19.28906 | -103.59502 | 39966 ft | 401 kts | 310° |
| 2026-04-24 20:51 | 19.32694 | -103.63872 | 39978 ft | 401 kts | 310° |
| 2026-04-24 20:52 | 19.36557 | -103.68336 | 39996 ft | 401 kts | 309° |
| 2026-04-24 20:52 | 19.40395 | -103.72777 | 40022 ft | 401 kts | 310° |
| 2026-04-24 20:53 | 19.44229 | -103.77216 | 40046 ft | 401 kts | 310° |
| 2026-04-24 20:53 | 19.48072 | -103.81668 | 40078 ft | 400 kts | 310° |
| 2026-04-24 20:54 | 19.51872 | -103.86076 | 40108 ft | 401 kts | 310° |
| 2026-04-24 20:54 | 19.55695 | -103.90514 | 40103 ft | 401 kts | 310° |
| 2026-04-24 20:55 | 19.59500 | -103.94935 | 40094 ft | 401 kts | 310° |
| 2026-04-24 20:55 | 19.63328 | -103.99385 | 40070 ft | 402 kts | 310° |
| 2026-04-24 20:56 | 19.67178 | -104.03865 | 40061 ft | 401 kts | 310° |
| 2026-04-24 20:56 | 19.71003 | -104.08320 | 40051 ft | 400 kts | 310° |
| 2026-04-24 20:57 | 19.74827 | -104.12779 | 40030 ft | 400 kts | 310° |
| 2026-04-24 20:57 | 19.78648 | -104.17237 | 40039 ft | 399 kts | 310° |
| 2026-04-24 20:58 | 19.82449 | -104.21677 | 40070 ft | 400 kts | 310° |
| 2026-04-24 20:58 | 19.86243 | -104.26111 | 40088 ft | 401 kts | 310° |
| 2026-04-24 20:59 | 19.90114 | -104.30636 | 40106 ft | 401 kts | 310° |
| 2026-04-24 20:59 | 19.93975 | -104.35153 | 40120 ft | 400 kts | 310° |
| 2026-04-24 21:00 | 19.97805 | -104.39638 | 40136 ft | 400 kts | 310° |
| 2026-04-24 21:00 | 20.01644 | -104.44137 | 40156 ft | 399 kts | 309° |
| 2026-04-24 21:01 | 20.05433 | -104.48582 | 40159 ft | 400 kts | 309° |
| 2026-04-24 21:01 | 20.09194 | -104.52995 | 40143 ft | 401 kts | 309° |
| 2026-04-24 21:02 | 20.12964 | -104.57425 | 40123 ft | 401 kts | 310° |
| 2026-04-24 21:02 | 20.16748 | -104.61874 | 40132 ft | 400 kts | 309° |
| 2026-04-24 21:03 | 20.20506 | -104.66296 | 40150 ft | 400 kts | 309° |
| 2026-04-24 21:03 | 20.24292 | -104.70754 | 40165 ft | 400 kts | 309° |
| 2026-04-24 21:04 | 20.28055 | -104.75190 | 40164 ft | 400 kts | 309° |
| 2026-04-24 21:04 | 20.31821 | -104.79631 | 40136 ft | 400 kts | 309° |
| 2026-04-24 21:05 | 20.35586 | -104.84076 | 40093 ft | 400 kts | 309° |
| 2026-04-24 21:05 | 20.39373 | -104.88548 | 40064 ft | 400 kts | 309° |
| 2026-04-24 21:06 | 20.43112 | -104.92969 | 40047 ft | 399 kts | 309° |
| 2026-04-24 21:06 | 20.46883 | -104.97432 | 40040 ft | 400 kts | 309° |
| 2026-04-24 21:07 | 20.50633 | -105.01873 | 40030 ft | 400 kts | 309° |
| 2026-04-24 21:07 | 20.54402 | -105.06340 | 39986 ft | 399 kts | 309° |
| 2026-04-24 21:08 | 20.58205 | -105.10850 | 39951 ft | 398 kts | 309° |
| 2026-04-24 21:08 | 20.62113 | -105.15490 | 39922 ft | 398 kts | 308° |
| 2026-04-24 21:09 | 20.65962 | -105.20063 | 39896 ft | 398 kts | 308° |
| 2026-04-24 21:09 | 20.69908 | -105.24371 | 39883 ft | 401 kts | 317° |
| 2026-04-24 21:10 | 20.74517 | -105.27842 | 39863 ft | 404 kts | 321° |
| 2026-04-24 21:10 | 20.79323 | -105.31370 | 39869 ft | 404 kts | 321° |
| 2026-04-24 21:11 | 20.84373 | -105.35081 | 39869 ft | 404 kts | 321° |
| 2026-04-24 21:11 | 20.89331 | -105.38730 | 39863 ft | 405 kts | 321° |
| 2026-04-24 21:12 | 20.93470 | -105.41778 | 39858 ft | 404 kts | 321° |
| 2026-04-24 21:12 | 20.99166 | -105.45978 | 39858 ft | 404 kts | 321° |
| 2026-04-24 21:13 | 21.03878 | -105.49455 | 39859 ft | 404 kts | 321° |
| 2026-04-24 21:13 | 21.08646 | -105.52973 | 39851 ft | 404 kts | 321° |
| 2026-04-24 21:14 | 21.13373 | -105.56464 | 39855 ft | 403 kts | 321° |
| 2026-04-24 21:14 | 21.18262 | -105.60077 | 39848 ft | 403 kts | 321° |
| 2026-04-24 21:15 | 21.23107 | -105.63661 | 39852 ft | 403 kts | 321° |
| 2026-04-24 21:15 | 21.27916 | -105.67221 | 39853 ft | 404 kts | 321° |
| 2026-04-24 21:16 | 21.32764 | -105.70813 | 39854 ft | 404 kts | 321° |
| 2026-04-24 21:16 | 21.37180 | -105.74685 | 39859 ft | 397 kts | 309° |
| 2026-04-24 21:17 | 21.40431 | -105.79602 | 39858 ft | 391 kts | 296° |
| 2026-04-24 21:17 | 21.43157 | -105.85028 | 39858 ft | 391 kts | 295° |
| 2026-04-24 21:18 | 21.45895 | -105.90481 | 39852 ft | 391 kts | 295° |
| 2026-04-24 21:18 | 21.48624 | -105.95921 | 39839 ft | 388 kts | 295° |
| 2026-04-24 21:19 | 21.51311 | -106.01282 | 39843 ft | 385 kts | 295° |
| 2026-04-24 21:19 | 21.53992 | -106.06639 | 39848 ft | 385 kts | 295° |
| 2026-04-24 21:20 | 21.58001 | -106.14660 | 39862 ft | 385 kts | 295° |
| 2026-04-24 21:21 | 21.60711 | -106.20090 | 39863 ft | 385 kts | 295° |
| 2026-04-24 21:21 | 21.63403 | -106.25489 | 39865 ft | 385 kts | 295° |
| 2026-04-24 21:22 | 21.66100 | -106.30903 | 39866 ft | 385 kts | 295° |
| 2026-04-24 21:22 | 21.68727 | -106.36183 | 39867 ft | 385 kts | 295° |
| 2026-04-24 21:23 | 21.71421 | -106.41602 | 39868 ft | 385 kts | 295° |
| 2026-04-24 21:23 | 21.74102 | -106.47001 | 39870 ft | 385 kts | 295° |
| 2026-04-24 21:24 | 21.76725 | -106.52289 | 39869 ft | 386 kts | 295° |
| 2026-04-24 21:24 | 21.79343 | -106.57571 | 39877 ft | 385 kts | 295° |
| 2026-04-24 21:25 | 21.81943 | -106.62822 | 39878 ft | 385 kts | 295° |
| 2026-04-24 21:25 | 21.84533 | -106.68059 | 39879 ft | 386 kts | 295° |
| 2026-04-24 21:26 | 21.87106 | -106.73267 | 39879 ft | 385 kts | 295° |
| 2026-04-24 21:26 | 21.89741 | -106.78605 | 39877 ft | 386 kts | 295° |
| 2026-04-24 21:27 | 21.92369 | -106.83934 | 39869 ft | 386 kts | 295° |
| 2026-04-24 21:27 | 21.95037 | -106.89350 | 39867 ft | 386 kts | 295° |
| 2026-04-24 21:28 | 21.97660 | -106.94682 | 39861 ft | 386 kts | 295° |
| 2026-04-24 21:28 | 22.00278 | -107.00007 | 39865 ft | 386 kts | 295° |
| 2026-04-24 21:29 | 22.02917 | -107.05380 | 39865 ft | 385 kts | 295° |
| 2026-04-24 21:29 | 22.05513 | -107.10671 | 39869 ft | 385 kts | 295° |
| 2026-04-24 21:30 | 22.08104 | -107.15958 | 39865 ft | 384 kts | 295° |
| 2026-04-24 21:30 | 22.09398 | -107.18600 | 39867 ft | 384 kts | 295° |
| 2026-04-24 21:31 | 22.11987 | -107.23890 | 39867 ft | 385 kts | 295° |
| 2026-04-24 21:31 | 22.14624 | -107.29285 | 39871 ft | 385 kts | 295° |
| 2026-04-24 21:32 | 22.17231 | -107.34622 | 39871 ft | 384 kts | 295° |
| 2026-04-24 21:32 | 22.19800 | -107.39889 | 39871 ft | 384 kts | 295° |
| 2026-04-24 21:33 | 22.22372 | -107.45167 | 39884 ft | 384 kts | 295° |
| 2026-04-24 21:33 | 22.24937 | -107.50434 | 39886 ft | 383 kts | 295° |
| 2026-04-24 21:34 | 22.27552 | -107.55814 | 39497 ft | 393 kts | 295° |
| 2026-04-24 21:34 | 22.28943 | -107.58680 | 38948 ft | 403 kts | 295° |
| 2026-04-24 21:34 | 22.30348 | -107.61575 | 38409 ft | 408 kts | 295° |
| 2026-04-24 21:34 | 22.31737 | -107.64435 | 37878 ft | 408 kts | 295° |
| 2026-04-24 21:35 | 22.33152 | -107.67351 | 37328 ft | 409 kts | 294° |
| 2026-04-24 21:35 | 22.34542 | -107.70216 | 36778 ft | 409 kts | 295° |
| 2026-04-24 21:35 | 22.35937 | -107.73091 | 36216 ft | 405 kts | 295° |
| 2026-04-24 21:35 | 22.37284 | -107.75870 | 35669 ft | 401 kts | 295° |
| 2026-04-24 21:36 | 22.38623 | -107.78632 | 35118 ft | 396 kts | 294° |
| 2026-04-24 21:36 | 22.39745 | -107.80951 | 34659 ft | 393 kts | 295° |
| 2026-04-24 21:37 | 22.41103 | -107.83757 | 34098 ft | 389 kts | 294° |
| 2026-04-24 21:37 | 22.42447 | -107.86537 | 33545 ft | 387 kts | 294° |
| 2026-04-24 21:37 | 22.43752 | -107.89238 | 33016 ft | 384 kts | 294° |
| 2026-04-24 21:37 | 22.45090 | -107.92010 | 32459 ft | 383 kts | 294° |
| 2026-04-24 21:38 | 22.46399 | -107.94720 | 31921 ft | 380 kts | 294° |
| 2026-04-24 21:38 | 22.47723 | -107.97464 | 31370 ft | 377 kts | 294° |
| 2026-04-24 21:38 | 22.48996 | -108.00105 | 30844 ft | 373 kts | 294° |
| 2026-04-24 21:38 | 22.50285 | -108.02779 | 30307 ft | 370 kts | 295° |
| 2026-04-24 21:39 | 22.51546 | -108.05397 | 29782 ft | 368 kts | 294° |
| 2026-04-24 21:39 | 22.52773 | -108.07948 | 29272 ft | 366 kts | 295° |
| 2026-04-24 21:39 | 22.53990 | -108.10476 | 28767 ft | 363 kts | 294° |
| 2026-04-24 21:39 | 22.55196 | -108.12985 | 28268 ft | 361 kts | 294° |
| 2026-04-24 21:40 | 22.56389 | -108.15468 | 27776 ft | 359 kts | 295° |
| 2026-04-24 21:40 | 22.57578 | -108.17941 | 27287 ft | 356 kts | 295° |
| 2026-04-24 21:40 | 22.58758 | -108.20400 | 26800 ft | 354 kts | 295° |
| 2026-04-24 21:40 | 22.59941 | -108.22865 | 26313 ft | 352 kts | 295° |
| 2026-04-24 21:41 | 22.61080 | -108.25240 | 25845 ft | 349 kts | 295° |
| 2026-04-24 21:41 | 22.62224 | -108.27626 | 25374 ft | 347 kts | 295° |
| 2026-04-24 21:41 | 22.63378 | -108.30035 | 24900 ft | 344 kts | 295° |
| 2026-04-24 21:41 | 22.64534 | -108.32448 | 24421 ft | 342 kts | 295° |
| 2026-04-24 21:42 | 22.65662 | -108.34803 | 23956 ft | 341 kts | 295° |
| 2026-04-24 21:42 | 22.66789 | -108.37160 | 23489 ft | 339 kts | 295° |
| 2026-04-24 21:42 | 22.67898 | -108.39478 | 23026 ft | 336 kts | 295° |
| 2026-04-24 21:42 | 22.68994 | -108.41769 | 22573 ft | 334 kts | 295° |
| 2026-04-24 21:43 | 22.70121 | -108.44128 | 22104 ft | 332 kts | 295° |
| 2026-04-24 21:43 | 22.71215 | -108.46420 | 21646 ft | 331 kts | 295° |
| 2026-04-24 21:43 | 22.72323 | -108.48740 | 21182 ft | 329 kts | 295° |
| 2026-04-24 21:43 | 22.73396 | -108.50990 | 20737 ft | 327 kts | 295° |
| 2026-04-24 21:44 | 22.74442 | -108.53228 | 20291 ft | 325 kts | 293° |
| 2026-04-24 21:44 | 22.75289 | -108.55532 | 19849 ft | 323 kts | 289° |
| 2026-04-24 21:44 | 22.76076 | -108.57870 | 19406 ft | 321 kts | 289° |
| 2026-04-24 21:44 | 22.76871 | -108.60199 | 18969 ft | 320 kts | 289° |
| 2026-04-24 21:45 | 22.77666 | -108.62527 | 18534 ft | 319 kts | 289° |
| 2026-04-24 21:45 | 22.78470 | -108.64883 | 18089 ft | 318 kts | 289° |
| 2026-04-24 21:45 | 22.79244 | -108.67154 | 17665 ft | 316 kts | 289° |
| 2026-04-24 21:45 | 22.80022 | -108.69437 | 17243 ft | 315 kts | 289° |
| 2026-04-24 21:46 | 22.80796 | -108.71709 | 16817 ft | 313 kts | 289° |
| 2026-04-24 21:46 | 22.81557 | -108.73945 | 16402 ft | 311 kts | 289° |
| 2026-04-24 21:46 | 22.82332 | -108.76220 | 15979 ft | 309 kts | 289° |
| 2026-04-24 21:46 | 22.83101 | -108.78480 | 15554 ft | 307 kts | 290° |
| 2026-04-24 21:47 | 22.83877 | -108.80764 | 15125 ft | 305 kts | 290° |
| 2026-04-24 21:47 | 22.84404 | -108.82313 | 14835 ft | 304 kts | 290° |
| 2026-04-24 21:47 | 22.85449 | -108.85390 | 14259 ft | 302 kts | 290° |
| 2026-04-24 21:47 | 22.86216 | -108.87650 | 13833 ft | 299 kts | 290° |
| 2026-04-24 21:48 | 22.86983 | -108.89911 | 13499 ft | 295 kts | 290° |
| 2026-04-24 21:48 | 22.87739 | -108.92139 | 13403 ft | 294 kts | 290° |
| 2026-04-24 21:48 | 22.88473 | -108.94306 | 13423 ft | 297 kts | 290° |
| 2026-04-24 21:48 | 22.89237 | -108.96562 | 13195 ft | 298 kts | 290° |
| 2026-04-24 21:49 | 22.89995 | -108.98801 | 13034 ft | 297 kts | 290° |
| 2026-04-24 21:49 | 22.90745 | -109.01018 | 12862 ft | 296 kts | 290° |
| 2026-04-24 21:49 | 22.91500 | -109.03249 | 12691 ft | 296 kts | 290° |
| 2026-04-24 21:49 | 22.92248 | -109.05459 | 12510 ft | 296 kts | 290° |
| 2026-04-24 21:50 | 22.93007 | -109.07707 | 12343 ft | 295 kts | 290° |
| 2026-04-24 21:50 | 22.93754 | -109.09917 | 12179 ft | 295 kts | 290° |
| 2026-04-24 21:50 | 22.94483 | -109.12076 | 12006 ft | 294 kts | 290° |
| 2026-04-24 21:50 | 22.95234 | -109.14303 | 11838 ft | 293 kts | 290° |
| 2026-04-24 21:51 | 22.95977 | -109.16503 | 11670 ft | 293 kts | 290° |
| 2026-04-24 21:51 | 22.96720 | -109.18708 | 11503 ft | 292 kts | 290° |
| 2026-04-24 21:51 | 22.97454 | -109.20887 | 11325 ft | 291 kts | 290° |
| 2026-04-24 21:51 | 22.98183 | -109.23048 | 11172 ft | 292 kts | 290° |
| 2026-04-24 21:52 | 22.98914 | -109.25222 | 10999 ft | 291 kts | 291° |
| 2026-04-24 21:52 | 22.99646 | -109.27396 | 10825 ft | 290 kts | 291° |
| 2026-04-24 21:52 | 23.00473 | -109.29479 | 10667 ft | 288 kts | 303° |
| 2026-04-24 21:52 | 23.01931 | -109.31246 | 10501 ft | 288 kts | 316° |
| 2026-04-24 21:53 | 23.03452 | -109.32840 | 10329 ft | 287 kts | 316° |
| 2026-04-24 21:53 | 23.04970 | -109.34438 | 10164 ft | 287 kts | 316° |
| 2026-04-24 21:53 | 23.06437 | -109.35983 | 10010 ft | 287 kts | 316° |
| 2026-04-24 21:53 | 23.07928 | -109.37554 | 9840 ft | 286 kts | 316° |
| 2026-04-24 21:54 | 23.09384 | -109.39089 | 9678 ft | 286 kts | 316° |
| 2026-04-24 21:54 | 23.10810 | -109.40594 | 9521 ft | 285 kts | 316° |
| 2026-04-24 21:54 | 23.12259 | -109.42122 | 9370 ft | 285 kts | 316° |
| 2026-04-24 21:54 | 23.13751 | -109.43697 | 9207 ft | 284 kts | 316° |
| 2026-04-24 21:55 | 23.15207 | -109.45235 | 9050 ft | 283 kts | 316° |
| 2026-04-24 21:55 | 23.16609 | -109.46716 | 8907 ft | 282 kts | 316° |
| 2026-04-24 21:55 | 23.18030 | -109.48212 | 8684 ft | 283 kts | 316° |
| 2026-04-24 21:55 | 23.19453 | -109.49710 | 8260 ft | 284 kts | 316° |
| 2026-04-24 21:56 | 23.20885 | -109.51220 | 7736 ft | 285 kts | 316° |
| 2026-04-24 21:56 | 23.22285 | -109.52695 | 7410 ft | 278 kts | 316° |
| 2026-04-24 21:56 | 23.23673 | -109.54159 | 7065 ft | 274 kts | 316° |
| 2026-04-24 21:56 | 23.25032 | -109.55592 | 6715 ft | 273 kts | 316° |
| 2026-04-24 21:57 | 23.26412 | -109.57048 | 6372 ft | 273 kts | 316° |
| 2026-04-24 21:57 | 23.27766 | -109.58478 | 6003 ft | 273 kts | 316° |
| 2026-04-24 21:57 | 23.29115 | -109.59901 | 5657 ft | 269 kts | 316° |
| 2026-04-24 21:57 | 23.30451 | -109.61314 | 5377 ft | 259 kts | 316° |
| 2026-04-24 21:58 | 23.31699 | -109.62632 | 5157 ft | 247 kts | 316° |
| 2026-04-24 21:58 | 23.32906 | -109.63930 | 4839 ft | 239 kts | 313° |
| 2026-04-24 21:58 | 23.33728 | -109.65466 | 4315 ft | 233 kts | 288° |
| 2026-04-24 21:58 | 23.33853 | -109.67210 | 4029 ft | 236 kts | 266° |
| 2026-04-24 21:59 | 23.33683 | -109.68948 | 3971 ft | 221 kts | 265° |
| 2026-04-24 21:59 | 23.33532 | -109.70509 | 3999 ft | 200 kts | 265° |
| 2026-04-24 21:59 | 23.33277 | -109.71994 | 3978 ft | 197 kts | 251° |
| 2026-04-24 21:59 | 23.32491 | -109.73196 | 3964 ft | 198 kts | 221° |
| 2026-04-24 22:00 | 23.31293 | -109.73919 | 3974 ft | 192 kts | 202° |
| 2026-04-24 22:00 | 23.29968 | -109.74000 | 3970 ft | 200 kts | 163° |
| 2026-04-24 22:00 | 23.28801 | -109.73172 | 3981 ft | 201 kts | 131° |
| 2026-04-24 22:00 | 23.28277 | -109.71817 | 3979 ft | 198 kts | 93° |
| 2026-04-24 22:01 | 23.28259 | -109.70313 | 3994 ft | 198 kts | 87° |
| 2026-04-24 22:01 | 23.28295 | -109.68802 | 3984 ft | 198 kts | 86° |
| 2026-04-24 22:01 | 23.28333 | -109.67314 | 3979 ft | 198 kts | 86° |
| 2026-04-24 22:01 | 23.28522 | -109.65829 | 3969 ft | 196 kts | 66° |
| 2026-04-24 22:02 | 23.29350 | -109.64703 | 3969 ft | 192 kts | 32° |
| 2026-04-24 22:02 | 23.30620 | -109.64289 | 3969 ft | 194 kts | 358° |
| 2026-04-24 22:02 | 23.32009 | -109.64583 | 3967 ft | 213 kts | 340° |
| 2026-04-24 22:02 | 23.33246 | -109.65503 | 3959 ft | 218 kts | 310° |
| 2026-04-24 22:03 | 23.33841 | -109.67021 | 3965 ft | 222 kts | 276° |
| 2026-04-24 22:03 | 23.33746 | -109.68700 | 3790 ft | 224 kts | 265° |
| 2026-04-24 22:03 | 23.33579 | -109.70345 | 3522 ft | 210 kts | 265° |
| 2026-04-24 22:03 | 23.33274 | -109.71840 | 3271 ft | 201 kts | 250° |
| 2026-04-24 22:04 | 23.32502 | -109.73055 | 2956 ft | 189 kts | 223° |
| 2026-04-24 22:04 | 23.31309 | -109.73714 | 2867 ft | 194 kts | 195° |
| 2026-04-24 22:04 | 23.29961 | -109.73791 | 2874 ft | 197 kts | 175° |
| 2026-04-24 22:04 | 23.28571 | -109.73615 | 2642 ft | 198 kts | 173° |
| 2026-04-24 22:05 | 23.27190 | -109.73443 | 2404 ft | 195 kts | 173° |
| 2026-04-24 22:05 | 23.25839 | -109.73286 | 2151 ft | 192 kts | 173° |
| 2026-04-24 22:05 | 23.24558 | -109.73140 | 1939 ft | 168 kts | 174° |
| 2026-04-24 22:05 | 23.23404 | -109.73008 | 1706 ft | 162 kts | 174° |
| 2026-04-24 22:06 | 23.22240 | -109.72875 | 1489 ft | 147 kts | 173° |
| 2026-04-24 22:06 | 23.21205 | -109.72758 | 1282 ft | 140 kts | 173° |
| 2026-04-24 22:06 | 23.20209 | -109.72642 | 1119 ft | 134 kts | 172° |
| 2026-04-24 22:06 | 23.19242 | -109.72510 | 946 ft | 131 kts | 173° |
| 2026-04-24 22:07 | 23.18280 | -109.72426 | 754 ft | 129 kts | 173° |
| 2026-04-24 22:07 | 23.17342 | -109.72316 | 566 ft | 126 kts | 172° |
| 2026-04-24 22:07 | 23.16388 | -109.72214 | 409 ft | 122 kts | 172° |
| 2026-04-24 22:07 | 23.15573 | -109.72116 | 375 ft | 89 kts | 174° |
| 2026-04-24 22:08 | 23.15043 | -109.72059 | 362 ft | 48 kts | 174° |
| 2026-04-24 22:08 | 23.14801 | -109.72028 | 354 ft | 31 kts | 173° |
| 2026-04-24 22:08 | 23.14592 | -109.71949 | 346 ft | 32 kts | 143° |
| 2026-04-24 22:08 | 23.14472 | -109.71851 | 340 ft | 11 kts | 132° |
| 2026-04-24 22:09 | 23.14493 | -109.71793 | 339 ft | 10 kts | 353° |
| 2026-04-24 22:09 | 23.14595 | -109.71806 | 343 ft | 20 kts | 354° |
| 2026-04-24 22:09 | 23.14612 | -109.71808 | 343 ft | 22 kts | 354° |
| 2026-04-24 22:09 | 23.14818 | -109.71828 | 350 ft | 33 kts | 354° |
| 2026-04-24 22:10 | 23.15071 | -109.71853 | 358 ft | 34 kts | 354° |
| 2026-04-24 22:10 | 23.15343 | -109.71882 | 366 ft | 35 kts | 354° |
| 2026-04-24 22:10 | 23.15515 | -109.71900 | 369 ft | 16 kts | 354° |
| 2026-04-24 22:10 | 23.15651 | -109.71915 | 372 ft | 19 kts | 354° |
| 2026-04-24 22:11 | 23.15809 | -109.71930 | 375 ft | 22 kts | 355° |
| 2026-04-24 22:11 | 23.15989 | -109.71947 | 378 ft | 25 kts | 353° |
| 2026-04-24 22:11 | 23.16185 | -109.71970 | 380 ft | 28 kts | 355° |
| 2026-04-24 22:11 | 23.16348 | -109.71985 | 382 ft | 19 kts | 354° |
| 2026-04-24 22:12 | 23.16501 | -109.72002 | 383 ft | 23 kts | 354° |
| 2026-04-24 22:12 | 23.16679 | -109.72019 | 384 ft | 27 kts | 354° |
| 2026-04-24 22:12 | 23.16756 | -109.71992 | 384 ft | 11 kts | 85° |
| 2026-04-24 22:12 | 23.16692 | -109.71939 | 383 ft | 13 kts | 176° |
| 2026-04-24 22:13 | 23.16572 | -109.71926 | 382 ft | 17 kts | 175° |
| 2026-04-24 22:13 | 23.16473 | -109.71915 | 382 ft | 12 kts | 173° |
| 2026-04-24 22:13 | 23.16443 | -109.71880 | 381 ft | 4 kts | 76° |
| 2026-04-24 22:13 | 23.16436 | -109.71843 | 380 ft | 4 kts | 155° |
| 2026-04-24 22:14 | 23.16415 | -109.71841 | 380 ft | 5 kts | 175° |
| 2026-04-24 22:14 | 23.16410 | -109.71841 | 380 ft | 1 kts | 177° |